Tropical Cyclones
[Index]
Main Index Home Page Stock Weather Photos Extreme Storms Discussion Storm News and Storm Chasing Reports Tropical Cyclones / Hurricanes / Typhoons Weather Data and Links Wild Fires / Bushfires Weather Observation Techniques Weather Picture Catalogue Tornado Pictures and Reports Stock Video Footage and DVDs for sale
Season 2002-2003 Tropical Cyclone ERICA Track Map
Season 2002-2003 Summaries: [BoM-AU] [JTWC-AU] [JTWC-SIO] [JTWC-SPAC] [JTWC-SH]
<<- Previous TC | JTWC 2002-2003 Season | Next TC ->>

click for intensity scale information  Lat/long Grid: Show Hide

 Date Labels: Show Hide

Joint Typhoon Warning Centre Cyclone Data

Name: ERICA

04 Mar 2003 00:00 UTC to 15 Mar 2003 06:00 UTC

    date/time    lat    long     hPa   cat  kts
2003-03-04 00   20.1   152.4    1004         20          
2003-03-04 06   20.8   153.1    1002         25          
2003-03-04 12   21.3   154.0    1000         30          
2003-03-04 18   20.8   154.6    1000         30          
2003-03-05 00   20.3   155.0    1000         30          
2003-03-05 06   19.7   155.1     997         35          
2003-03-05 12   19.0   155.3     997         35          
2003-03-05 18   18.3   155.0     997         35          
2003-03-06 00   17.6   154.4    1000         30          
2003-03-06 06   16.8   153.9    1000         30          
2003-03-06 12   16.2   153.8    1000         30          
2003-03-06 18   15.6   153.8    1000         30          
2003-03-07 00   15.0   153.7    1000         30          
2003-03-07 06   14.4   153.6    1002         25          
2003-03-07 12   13.8   153.5    1002         25          
2003-03-07 18   13.9   153.1    1002         25          
2003-03-08 00   14.0   153.7    1002         25          
2003-03-08 06   13.6   154.1    1002         25          
2003-03-08 12   12.9   154.3    1002         25          
2003-03-08 18   12.4   154.7    1002         25          
2003-03-09 00   12.3   155.3    1002         25          
2003-03-09 06   12.3   154.4    1002         25          
2003-03-09 12   12.4   155.6    1002         25          
2003-03-09 18   12.4   156.5    1002         25          
2003-03-10 00   12.3   157.3    1002         25          
2003-03-10 06   12.1   157.8    1000         30          
2003-03-10 12   12.2   158.3     997         35          
2003-03-10 18   12.7   158.2     997         35          
2003-03-11 00   13.0   158.5     994    1    40          
2003-03-11 06   13.4   158.9     994    1    45          
2003-03-11 12   14.2   159.3     987    1    50          
2003-03-11 18   15.2   159.6     984    2    55          
2003-03-12 00   16.2   159.7     976    2    65          
2003-03-12 06   17.1   159.9     976    2    65          
2003-03-12 12   17.9   160.4     954    3    90          
2003-03-12 18   18.8   160.8     927    4   115          
2003-03-13 00   19.6   161.3     910    5   130          
2003-03-13 06   20.2   162.0     910    5   130          
2003-03-13 12   20.7   162.9     910    5   130          
2003-03-13 18   21.1   164.2     916    5   125          
2003-03-14 00   22.1   166.1     944    4   100          
2003-03-14 06   23.1   168.7     954    3    90          
2003-03-14 12   24.5   171.1     963    3    80          
2003-03-14 18   25.9   173.5     972    2    70          
2003-03-15 00   27.5   176.1     980    2    60          
2003-03-15 06   28.8   179.0    1000         30          
Winds are 1-min average.

Tropical cyclone tracks developed by Michael Bath using data from the Joint Typhoon Warning Centre Best Tracks and Google Maps.


[Australian Severe Weather index] [Copyright Notice] [Email Contacts] [Search This Site] [Privacy Policy]
Document: tropical_cyclone_erica.htm Updated: 28 June 2017